sensor_id;sensor_type;location;lat;lon;timestamp;temperature;humidity
36372;DHT22;22398;51.346;12.372;2023-07-28T00:04:49;22.60;76.70
36372;DHT22;22398;51.346;12.372;2023-07-28T00:09:53;22.60;76.70
36372;DHT22;22398;51.346;12.372;2023-07-28T00:14:57;22.60;76.70
36372;DHT22;22398;51.346;12.372;2023-07-28T00:20:02;22.60;76.70
36372;DHT22;22398;51.346;12.372;2023-07-28T00:25:06;22.60;76.70
36372;DHT22;22398;51.346;12.372;2023-07-28T00:30:12;22.60;76.60
36372;DHT22;22398;51.346;12.372;2023-07-28T00:35:15;22.60;76.60
36372;DHT22;22398;51.346;12.372;2023-07-28T00:40:19;22.60;76.60
36372;DHT22;22398;51.346;12.372;2023-07-28T00:45:25;22.60;76.60
36372;DHT22;22398;51.346;12.372;2023-07-28T00:50:28;22.60;76.50
36372;DHT22;22398;51.346;12.372;2023-07-28T00:55:31;22.60;76.50
36372;DHT22;22398;51.346;12.372;2023-07-28T01:00:36;22.60;76.50
36372;DHT22;22398;51.346;12.372;2023-07-28T01:05:44;22.60;76.40
36372;DHT22;22398;51.346;12.372;2023-07-28T01:10:50;22.60;76.40
36372;DHT22;22398;51.346;12.372;2023-07-28T01:15:54;22.60;76.40
36372;DHT22;22398;51.346;12.372;2023-07-28T01:20:57;22.60;76.40
36372;DHT22;22398;51.346;12.372;2023-07-28T01:26:03;22.60;76.30
36372;DHT22;22398;51.346;12.372;2023-07-28T01:31:09;22.60;76.30
36372;DHT22;22398;51.346;12.372;2023-07-28T01:36:12;22.60;76.20
36372;DHT22;22398;51.346;12.372;2023-07-28T01:41:15;22.60;76.20
36372;DHT22;22398;51.346;12.372;2023-07-28T01:46:20;22.60;76.20
36372;DHT22;22398;51.346;12.372;2023-07-28T01:51:23;22.60;76.20
36372;DHT22;22398;51.346;12.372;2023-07-28T01:56:26;22.60;76.10
36372;DHT22;22398;51.346;12.372;2023-07-28T02:01:31;22.60;76.10
36372;DHT22;22398;51.346;12.372;2023-07-28T02:06:34;22.60;76.10
36372;DHT22;22398;51.346;12.372;2023-07-28T02:11:37;22.60;76.10
36372;DHT22;22398;51.346;12.372;2023-07-28T02:16:42;22.60;76.00
36372;DHT22;22398;51.346;12.372;2023-07-28T02:21:45;22.60;76.00
36372;DHT22;22398;51.346;12.372;2023-07-28T02:26:48;22.60;75.90
36372;DHT22;22398;51.346;12.372;2023-07-28T02:31:53;22.60;75.90
36372;DHT22;22398;51.346;12.372;2023-07-28T02:36:57;22.60;75.90
36372;DHT22;22398;51.346;12.372;2023-07-28T02:42:01;22.60;75.90
36372;DHT22;22398;51.346;12.372;2023-07-28T02:47:05;22.60;75.80
36372;DHT22;22398;51.346;12.372;2023-07-28T02:52:09;22.60;75.80
36372;DHT22;22398;51.346;12.372;2023-07-28T02:57:12;22.60;75.80
36372;DHT22;22398;51.346;12.372;2023-07-28T03:02:19;22.60;75.80
36372;DHT22;22398;51.346;12.372;2023-07-28T03:07:23;22.60;75.70
36372;DHT22;22398;51.346;12.372;2023-07-28T03:12:34;22.60;75.70
36372;DHT22;22398;51.346;12.372;2023-07-28T03:17:39;22.60;75.70
36372;DHT22;22398;51.346;12.372;2023-07-28T03:22:42;22.60;75.70
36372;DHT22;22398;51.346;12.372;2023-07-28T03:27:45;22.60;75.60
36372;DHT22;22398;51.346;12.372;2023-07-28T03:32:50;22.60;75.60
36372;DHT22;22398;51.346;12.372;2023-07-28T03:37:53;22.60;75.60
36372;DHT22;22398;51.346;12.372;2023-07-28T03:42:56;22.60;75.50
36372;DHT22;22398;51.346;12.372;2023-07-28T03:48:01;22.60;75.50
36372;DHT22;22398;51.346;12.372;2023-07-28T03:53:04;22.60;75.50
36372;DHT22;22398;51.346;12.372;2023-07-28T03:58:07;22.60;75.40
36372;DHT22;22398;51.346;12.372;2023-07-28T04:03:12;22.60;75.40
36372;DHT22;22398;51.346;12.372;2023-07-28T04:08:15;22.60;75.30
36372;DHT22;22398;51.346;12.372;2023-07-28T04:13:18;22.60;75.30
36372;DHT22;22398;51.346;12.372;2023-07-28T04:18:23;22.60;75.30
36372;DHT22;22398;51.346;12.372;2023-07-28T04:23:26;22.60;75.20
36372;DHT22;22398;51.346;12.372;2023-07-28T04:28:29;22.60;75.20
36372;DHT22;22398;51.346;12.372;2023-07-28T04:33:38;22.60;75.20
36372;DHT22;22398;51.346;12.372;2023-07-28T04:38:41;22.70;75.10
36372;DHT22;22398;51.346;12.372;2023-07-28T04:43:44;22.70;75.20
36372;DHT22;22398;51.346;12.372;2023-07-28T04:48:49;22.70;75.00
36372;DHT22;22398;51.346;12.372;2023-07-28T04:54:28;22.70;75.00
36372;DHT22;22398;51.346;12.372;2023-07-28T04:59:31;22.70;74.90
36372;DHT22;22398;51.346;12.372;2023-07-28T05:04:36;22.80;74.90
36372;DHT22;22398;51.346;12.372;2023-07-28T05:09:39;22.80;74.80
36372;DHT22;22398;51.346;12.372;2023-07-28T05:14:42;22.80;74.70
36372;DHT22;22398;51.346;12.372;2023-07-28T05:19:49;22.80;74.70
36372;DHT22;22398;51.346;12.372;2023-07-28T05:25:30;22.80;74.60
36372;DHT22;22398;51.346;12.372;2023-07-28T05:30:34;22.80;74.50
36372;DHT22;22398;51.346;12.372;2023-07-28T05:35:39;22.90;74.50
36372;DHT22;22398;51.346;12.372;2023-07-28T05:40:42;22.90;74.40
36372;DHT22;22398;51.346;12.372;2023-07-28T05:45:46;22.90;74.30
36372;DHT22;22398;51.346;12.372;2023-07-28T05:50:53;22.90;74.20
36372;DHT22;22398;51.346;12.372;2023-07-28T05:55:57;23.00;74.10
36372;DHT22;22398;51.346;12.372;2023-07-28T06:01:02;23.10;74.10
36372;DHT22;22398;51.346;12.372;2023-07-28T06:06:45;23.10;74.00
36372;DHT22;22398;51.346;12.372;2023-07-28T06:11:50;23.10;73.90
36372;DHT22;22398;51.346;12.372;2023-07-28T06:16:53;23.10;73.80
36372;DHT22;22398;51.346;12.372;2023-07-28T06:21:59;23.10;73.80
36372;DHT22;22398;51.346;12.372;2023-07-28T06:27:04;23.10;73.70
36372;DHT22;22398;51.346;12.372;2023-07-28T06:32:12;23.20;73.70
36372;DHT22;22398;51.346;12.372;2023-07-28T06:37:16;23.30;73.60
36372;DHT22;22398;51.346;12.372;2023-07-28T06:42:19;23.30;73.50
36372;DHT22;22398;51.346;12.372;2023-07-28T06:47:30;23.30;73.40
36372;DHT22;22398;51.346;12.372;2023-07-28T06:52:35;23.40;73.40
36372;DHT22;22398;51.346;12.372;2023-07-28T06:57:38;23.40;73.30
36372;DHT22;22398;51.346;12.372;2023-07-28T07:02:42;23.40;73.20
36372;DHT22;22398;51.346;12.372;2023-07-28T07:07:46;23.50;73.10
36372;DHT22;22398;51.346;12.372;2023-07-28T07:12:50;23.50;73.00
36372;DHT22;22398;51.346;12.372;2023-07-28T07:17:54;23.60;72.90
36372;DHT22;22398;51.346;12.372;2023-07-28T07:22:58;23.60;72.80
36372;DHT22;22398;51.346;12.372;2023-07-28T07:28:01;23.70;72.70
36372;DHT22;22398;51.346;12.372;2023-07-28T07:33:04;23.70;72.60
36372;DHT22;22398;51.346;12.372;2023-07-28T07:38:09;23.80;72.50
36372;DHT22;22398;51.346;12.372;2023-07-28T07:43:12;23.80;72.80
36372;DHT22;22398;51.346;12.372;2023-07-28T07:48:20;23.90;72.20
36372;DHT22;22398;51.346;12.372;2023-07-28T07:53:25;24.00;72.10
36372;DHT22;22398;51.346;12.372;2023-07-28T07:58:28;23.90;71.90
36372;DHT22;22398;51.346;12.372;2023-07-28T08:03:31;24.00;71.80
36372;DHT22;22398;51.346;12.372;2023-07-28T08:08:35;24.00;71.70
36372;DHT22;22398;51.346;12.372;2023-07-28T08:13:41;24.10;71.60
36372;DHT22;22398;51.346;12.372;2023-07-28T08:18:44;24.10;71.50
36372;DHT22;22398;51.346;12.372;2023-07-28T08:23:50;24.10;71.30
36372;DHT22;22398;51.346;12.372;2023-07-28T08:28:53;24.20;71.30
36372;DHT22;22398;51.346;12.372;2023-07-28T08:33:56;24.30;71.20
36372;DHT22;22398;51.346;12.372;2023-07-28T08:39:01;24.30;71.00
36372;DHT22;22398;51.346;12.372;2023-07-28T08:44:05;24.40;71.00
36372;DHT22;22398;51.346;12.372;2023-07-28T08:49:09;24.40;70.80
36372;DHT22;22398;51.346;12.372;2023-07-28T08:54:14;24.50;70.70
36372;DHT22;22398;51.346;12.372;2023-07-28T08:59:20;24.40;70.60
36372;DHT22;22398;51.346;12.372;2023-07-28T09:04:23;24.40;70.60
36372;DHT22;22398;51.346;12.372;2023-07-28T09:09:31;24.40;70.60
36372;DHT22;22398;51.346;12.372;2023-07-28T09:14:34;24.50;70.60
36372;DHT22;22398;51.346;12.372;2023-07-28T09:19:48;24.50;70.50
36372;DHT22;22398;51.346;12.372;2023-07-28T09:24:53;24.60;70.50
36372;DHT22;22398;51.346;12.372;2023-07-28T09:29:56;24.60;70.50
36372;DHT22;22398;51.346;12.372;2023-07-28T09:35:06;24.60;70.40
36372;DHT22;22398;51.346;12.372;2023-07-28T09:40:13;24.70;70.30
36372;DHT22;22398;51.346;12.372;2023-07-28T09:45:17;24.70;70.30
36372;DHT22;22398;51.346;12.372;2023-07-28T09:50:38;24.80;70.30
36372;DHT22;22398;51.346;12.372;2023-07-28T09:55:43;24.70;70.10
36372;DHT22;22398;51.346;12.372;2023-07-28T10:00:46;24.90;70.10
36372;DHT22;22398;51.346;12.372;2023-07-28T10:05:50;24.90;70.00
36372;DHT22;22398;51.346;12.372;2023-07-28T10:10:55;24.90;69.90
36372;DHT22;22398;51.346;12.372;2023-07-28T10:15:59;24.90;69.80
36372;DHT22;22398;51.346;12.372;2023-07-28T10:21:04;25.00;69.80
36372;DHT22;22398;51.346;12.372;2023-07-28T10:26:10;25.00;69.80
36372;DHT22;22398;51.346;12.372;2023-07-28T10:31:13;25.10;69.70
36372;DHT22;22398;51.346;12.372;2023-07-28T10:36:20;25.10;69.60
36372;DHT22;22398;51.346;12.372;2023-07-28T10:41:37;25.20;69.60
36372;DHT22;22398;51.346;12.372;2023-07-28T10:46:40;25.20;69.50
36372;DHT22;22398;51.346;12.372;2023-07-28T10:51:43;25.30;69.50
36372;DHT22;22398;51.346;12.372;2023-07-28T10:56:48;25.40;69.50
36372;DHT22;22398;51.346;12.372;2023-07-28T11:01:52;25.50;69.40
36372;DHT22;22398;51.346;12.372;2023-07-28T11:06:55;25.50;69.30
36372;DHT22;22398;51.346;12.372;2023-07-28T11:12:00;25.40;69.20
36372;DHT22;22398;51.346;12.372;2023-07-28T11:17:03;25.40;69.30
36372;DHT22;22398;51.346;12.372;2023-07-28T11:22:08;25.50;69.40
36372;DHT22;22398;51.346;12.372;2023-07-28T11:27:13;25.40;69.30
36372;DHT22;22398;51.346;12.372;2023-07-28T11:32:16;25.50;69.20
36372;DHT22;22398;51.346;12.372;2023-07-28T11:37:20;25.50;69.20
36372;DHT22;22398;51.346;12.372;2023-07-28T11:42:25;25.60;69.20
36372;DHT22;22398;51.346;12.372;2023-07-28T11:47:28;25.60;69.10
36372;DHT22;22398;51.346;12.372;2023-07-28T11:52:32;25.70;69.00
36372;DHT22;22398;51.346;12.372;2023-07-28T11:57:38;25.70;69.00
36372;DHT22;22398;51.346;12.372;2023-07-28T12:02:41;25.70;68.90
36372;DHT22;22398;51.346;12.372;2023-07-28T12:07:47;25.70;69.00
36372;DHT22;22398;51.346;12.372;2023-07-28T12:12:51;25.70;69.00
36372;DHT22;22398;51.346;12.372;2023-07-28T12:18:04;25.70;69.00
36372;DHT22;22398;51.346;12.372;2023-07-28T12:23:11;25.70;69.00
36372;DHT22;22398;51.346;12.372;2023-07-28T12:28:18;25.70;68.90
36372;DHT22;22398;51.346;12.372;2023-07-28T12:33:22;25.90;68.90
36372;DHT22;22398;51.346;12.372;2023-07-28T12:38:40;25.90;68.90
36372;DHT22;22398;51.346;12.372;2023-07-28T12:43:45;26.00;68.80
36372;DHT22;22398;51.346;12.372;2023-07-28T12:48:51;26.00;68.70
36372;DHT22;22398;51.346;12.372;2023-07-28T12:53:54;26.00;68.70
36372;DHT22;22398;51.346;12.372;2023-07-28T12:58:58;26.00;68.70
36372;DHT22;22398;51.346;12.372;2023-07-28T13:04:04;26.10;68.70
36372;DHT22;22398;51.346;12.372;2023-07-28T13:09:07;26.10;68.60
36372;DHT22;22398;51.346;12.372;2023-07-28T13:14:15;26.10;68.60
36372;DHT22;22398;51.346;12.372;2023-07-28T13:19:18;26.10;68.60
36372;DHT22;22398;51.346;12.372;2023-07-28T13:24:22;26.10;68.50
36372;DHT22;22398;51.346;12.372;2023-07-28T13:29:26;26.20;68.60
36372;DHT22;22398;51.346;12.372;2023-07-28T13:34:29;26.20;68.50
36372;DHT22;22398;51.346;12.372;2023-07-28T13:39:32;26.20;68.40
36372;DHT22;22398;51.346;12.372;2023-07-28T13:44:37;26.20;68.50
36372;DHT22;22398;51.346;12.372;2023-07-28T13:49:58;26.20;68.50
36372;DHT22;22398;51.346;12.372;2023-07-28T13:55:01;26.20;68.50
36372;DHT22;22398;51.346;12.372;2023-07-28T14:00:11;26.20;68.50
36372;DHT22;22398;51.346;12.372;2023-07-28T14:05:15;26.20;68.50
36372;DHT22;22398;51.346;12.372;2023-07-28T14:10:18;26.30;68.50
36372;DHT22;22398;51.346;12.372;2023-07-28T14:15:23;26.30;68.60
36372;DHT22;22398;51.346;12.372;2023-07-28T14:20:26;26.30;68.50
36372;DHT22;22398;51.346;12.372;2023-07-28T14:25:29;26.30;68.40
36372;DHT22;22398;51.346;12.372;2023-07-28T14:30:34;26.30;68.50
36372;DHT22;22398;51.346;12.372;2023-07-28T14:35:37;26.40;68.50
36372;DHT22;22398;51.346;12.372;2023-07-28T14:40:41;26.40;68.50
36372;DHT22;22398;51.346;12.372;2023-07-28T14:45:47;26.40;68.50
36372;DHT22;22398;51.346;12.372;2023-07-28T14:50:51;26.40;68.50
36372;DHT22;22398;51.346;12.372;2023-07-28T14:55:55;26.50;68.60
36372;DHT22;22398;51.346;12.372;2023-07-28T15:01:00;26.50;68.50
36372;DHT22;22398;51.346;12.372;2023-07-28T15:06:04;26.50;68.50
36372;DHT22;22398;51.346;12.372;2023-07-28T15:11:07;26.50;68.50
36372;DHT22;22398;51.346;12.372;2023-07-28T15:16:12;26.50;68.50
36372;DHT22;22398;51.346;12.372;2023-07-28T15:21:15;26.60;68.60
36372;DHT22;22398;51.346;12.372;2023-07-28T15:26:18;26.60;68.60
36372;DHT22;22398;51.346;12.372;2023-07-28T15:31:23;26.60;68.50
36372;DHT22;22398;51.346;12.372;2023-07-28T15:36:26;26.60;68.50
36372;DHT22;22398;51.346;12.372;2023-07-28T15:41:29;26.60;68.40
36372;DHT22;22398;51.346;12.372;2023-07-28T15:46:34;26.70;68.50
36372;DHT22;22398;51.346;12.372;2023-07-28T15:51:37;26.70;68.50
36372;DHT22;22398;51.346;12.372;2023-07-28T15:56:40;26.70;68.40
36372;DHT22;22398;51.346;12.372;2023-07-28T16:01:45;26.70;68.40
36372;DHT22;22398;51.346;12.372;2023-07-28T16:06:48;26.80;68.40
36372;DHT22;22398;51.346;12.372;2023-07-28T16:11:52;26.80;68.40
36372;DHT22;22398;51.346;12.372;2023-07-28T16:16:56;26.80;68.30
36372;DHT22;22398;51.346;12.372;2023-07-28T16:22:00;26.80;68.30
36372;DHT22;22398;51.346;12.372;2023-07-28T16:27:03;26.90;68.30
36372;DHT22;22398;51.346;12.372;2023-07-28T16:32:08;26.90;68.30
36372;DHT22;22398;51.346;12.372;2023-07-28T16:37:13;26.90;68.20
36372;DHT22;22398;51.346;12.372;2023-07-28T16:42:16;27.00;68.30
36372;DHT22;22398;51.346;12.372;2023-07-28T16:47:20;26.90;68.20
36372;DHT22;22398;51.346;12.372;2023-07-28T16:52:24;27.00;68.20
36372;DHT22;22398;51.346;12.372;2023-07-28T16:57:28;27.00;68.20
36372;DHT22;22398;51.346;12.372;2023-07-28T17:02:33;27.00;68.20
36372;DHT22;22398;51.346;12.372;2023-07-28T17:07:36;27.10;68.20
36372;DHT22;22398;51.346;12.372;2023-07-28T17:12:40;27.10;68.10
36372;DHT22;22398;51.346;12.372;2023-07-28T17:17:49;27.20;68.00
36372;DHT22;22398;51.346;12.372;2023-07-28T17:22:52;27.20;68.00
36372;DHT22;22398;51.346;12.372;2023-07-28T17:27:55;27.20;67.90
36372;DHT22;22398;51.346;12.372;2023-07-28T17:32:59;27.30;67.90
36372;DHT22;22398;51.346;12.372;2023-07-28T17:38:03;27.20;67.80
36372;DHT22;22398;51.346;12.372;2023-07-28T17:43:06;27.20;67.80
36372;DHT22;22398;51.346;12.372;2023-07-28T17:48:10;27.10;67.90
36372;DHT22;22398;51.346;12.372;2023-07-28T17:53:13;27.10;68.00
36372;DHT22;22398;51.346;12.372;2023-07-28T17:58:16;27.00;68.00
36372;DHT22;22398;51.346;12.372;2023-07-28T18:03:21;27.00;68.10
36372;DHT22;22398;51.346;12.372;2023-07-28T18:08:25;26.90;68.10
36372;DHT22;22398;51.346;12.372;2023-07-28T18:13:28;26.90;68.20
36372;DHT22;22398;51.346;12.372;2023-07-28T18:18:32;26.90;68.30
36372;DHT22;22398;51.346;12.372;2023-07-28T18:23:35;26.90;68.30
36372;DHT22;22398;51.346;12.372;2023-07-28T18:28:39;26.90;68.40
36372;DHT22;22398;51.346;12.372;2023-07-28T18:33:43;26.90;68.50
36372;DHT22;22398;51.346;12.372;2023-07-28T18:38:47;26.80;68.40
36372;DHT22;22398;51.346;12.372;2023-07-28T18:43:50;26.80;68.50
36372;DHT22;22398;51.346;12.372;2023-07-28T18:48:55;26.80;68.50
36372;DHT22;22398;51.346;12.372;2023-07-28T18:53:58;26.80;68.60
36372;DHT22;22398;51.346;12.372;2023-07-28T18:59:01;26.70;68.60
36372;DHT22;22398;51.346;12.372;2023-07-28T19:04:05;26.70;68.60
36372;DHT22;22398;51.346;12.372;2023-07-28T19:09:08;26.70;68.70
36372;DHT22;22398;51.346;12.372;2023-07-28T19:14:12;26.70;68.80
36372;DHT22;22398;51.346;12.372;2023-07-28T19:19:16;26.70;68.80
36372;DHT22;22398;51.346;12.372;2023-07-28T19:24:19;26.60;68.80
36372;DHT22;22398;51.346;12.372;2023-07-28T19:29:23;26.60;68.90
36372;DHT22;22398;51.346;12.372;2023-07-28T19:34:28;26.60;69.00
36372;DHT22;22398;51.346;12.372;2023-07-28T19:39:33;26.60;69.00
36372;DHT22;22398;51.346;12.372;2023-07-28T19:44:36;26.60;69.10
36372;DHT22;22398;51.346;12.372;2023-07-28T19:49:44;26.50;69.10
36372;DHT22;22398;51.346;12.372;2023-07-28T19:54:59;26.50;69.20
36372;DHT22;22398;51.346;12.372;2023-07-28T20:00:02;26.40;69.20
36372;DHT22;22398;51.346;12.372;2023-07-28T20:05:11;26.40;69.30
36372;DHT22;22398;51.346;12.372;2023-07-28T20:10:16;26.40;69.30
36372;DHT22;22398;51.346;12.372;2023-07-28T20:15:19;26.30;69.30
36372;DHT22;22398;51.346;12.372;2023-07-28T20:20:23;26.30;69.40
36372;DHT22;22398;51.346;12.372;2023-07-28T20:25:26;26.30;69.40
36372;DHT22;22398;51.346;12.372;2023-07-28T20:30:30;26.20;69.40
36372;DHT22;22398;51.346;12.372;2023-07-28T20:35:34;26.20;69.50
36372;DHT22;22398;51.346;12.372;2023-07-28T20:40:37;26.20;69.50
36372;DHT22;22398;51.346;12.372;2023-07-28T20:45:41;26.20;69.60
36372;DHT22;22398;51.346;12.372;2023-07-28T20:50:45;26.20;69.70
36372;DHT22;22398;51.346;12.372;2023-07-28T20:55:49;26.20;69.70
36372;DHT22;22398;51.346;12.372;2023-07-28T21:00:52;26.10;69.70
36372;DHT22;22398;51.346;12.372;2023-07-28T21:05:57;26.10;69.70
36372;DHT22;22398;51.346;12.372;2023-07-28T21:11:00;26.10;69.80
36372;DHT22;22398;51.346;12.372;2023-07-28T21:16:03;26.00;69.80
36372;DHT22;22398;51.346;12.372;2023-07-28T21:21:08;26.00;69.80
36372;DHT22;22398;51.346;12.372;2023-07-28T21:31:43;26.00;69.90
36372;DHT22;22398;51.346;12.372;2023-07-28T21:36:47;26.00;70.00
36372;DHT22;22398;51.346;12.372;2023-07-28T21:41:51;25.90;70.00
36372;DHT22;22398;51.346;12.372;2023-07-28T21:46:54;25.90;70.00
36372;DHT22;22398;51.346;12.372;2023-07-28T21:51:58;25.90;70.00
36372;DHT22;22398;51.346;12.372;2023-07-28T21:57:01;25.90;70.10
36372;DHT22;22398;51.346;12.372;2023-07-28T22:02:04;25.90;70.10
36372;DHT22;22398;51.346;12.372;2023-07-28T22:07:12;25.90;70.60
36372;DHT22;22398;51.346;12.372;2023-07-28T22:12:19;25.90;70.20
36372;DHT22;22398;51.346;12.372;2023-07-28T22:17:22;25.80;70.20
36372;DHT22;22398;51.346;12.372;2023-07-28T22:22:27;25.80;70.20
36372;DHT22;22398;51.346;12.372;2023-07-28T22:27:30;25.70;70.20
36372;DHT22;22398;51.346;12.372;2023-07-28T22:32:33;25.70;70.20
36372;DHT22;22398;51.346;12.372;2023-07-28T22:37:39;25.70;70.20
36372;DHT22;22398;51.346;12.372;2023-07-28T22:42:42;25.70;70.30
36372;DHT22;22398;51.346;12.372;2023-07-28T22:47:45;25.70;70.30
36372;DHT22;22398;51.346;12.372;2023-07-28T22:52:49;25.70;70.30
36372;DHT22;22398;51.346;12.372;2023-07-28T22:57:52;25.60;70.30
36372;DHT22;22398;51.346;12.372;2023-07-28T23:02:55;25.60;70.40
36372;DHT22;22398;51.346;12.372;2023-07-28T23:08:00;25.60;70.40
36372;DHT22;22398;51.346;12.372;2023-07-28T23:13:04;25.50;70.40
36372;DHT22;22398;51.346;12.372;2023-07-28T23:18:07;25.50;70.40
36372;DHT22;22398;51.346;12.372;2023-07-28T23:23:11;25.50;70.50
36372;DHT22;22398;51.346;12.372;2023-07-28T23:28:14;25.50;70.50
36372;DHT22;22398;51.346;12.372;2023-07-28T23:33:17;25.40;70.50
36372;DHT22;22398;51.346;12.372;2023-07-28T23:38:22;25.40;70.50
36372;DHT22;22398;51.346;12.372;2023-07-28T23:43:25;25.40;70.50
36372;DHT22;22398;51.346;12.372;2023-07-28T23:48:28;25.40;70.60
36372;DHT22;22398;51.346;12.372;2023-07-28T23:53:32;25.40;70.60
36372;DHT22;22398;51.346;12.372;2023-07-28T23:58:35;25.40;70.60
